Portada
METAR-TAF:

METAR-TAF

Aeroports :

Virginia Highlands Airport

Abingdon, Virgínia, Estats Units d'Amèrica

latitud: 36-41N, longitud: 082-02W, altitud: 631 m

Observació

L'informe es va fer fa 19 minuts, a les 02:55 UTC
Vent calma
Temperatura 23°C
Humitat 65%
Pressió 1018 hPa
Visibilitat: 16.1 km
Núvols disperses a una alçada de 6000 ft

METAR: KVJI 050255Z AUTO 00000KT 10SM SCT060 23/16 A3005 RMK AO2 T02250156

Hora: 23:14 (03:14 UTC)


TAF: manca

Observacions i pronòstics meteorològics de més de 4000 aeroports (METAR i TAF).

Les estacions disponibles són els punts grocs i vermells al mapa.

Posi el ratolí al punt desitjat per veure el nom de l'estació.

Feu clic per veure les observacions i els pronòstics meteorològics.

Per canviar el mapa: feu clic els botons verds amb una creu de color negre per apropar; al botó verd amb un guió per allunyar la imatge; o en les fletxes verdes per a mapes adjacents.


METAR-TAF: